Time;durP1;ratioP1;P1;durP2;ratioP2;P2;SDS_P1;SDS_P2;PMS_P1;PMS_P2;Temp;Humidity;BMP_temperature;BMP_pressure;BME280_temperature;BME280_humidity;BME280_pressure;Samples;Min_cycle;Max_cycle;Signal;HPM_P1;HPM_P2
2023/12/19 00:00:59;;;;;;;66.50;31.40;;;9.90;99.90;;;;;;4992112;28;20043;-75
2023/12/19 00:03:25;;;;;;;55.78;28.30;;;9.90;99.90;;;;;;4994490;28;20034;-74
2023/12/19 00:05:50;;;;;;;55.60;28.60;;;10.00;99.90;;;;;;4994913;28;20033;-75
2023/12/19 00:08:16;;;;;;;54.67;29.00;;;9.90;99.90;;;;;;4994603;28;20465;-75
2023/12/19 00:10:42;;;;;;;64.88;28.67;;;9.90;99.90;;;;;;4994235;28;20478;-75
2023/12/19 00:13:08;;;;;;;52.88;28.20;;;9.90;99.90;;;;;;4992366;28;20051;-75
2023/12/19 00:15:33;;;;;;;56.63;29.17;;;10.00;99.90;;;;;;4994458;28;20133;-75
2023/12/19 00:17:59;;;;;;;54.08;28.20;;;9.90;99.90;;;;;;4993430;28;20018;-76
2023/12/19 00:20:25;;;;;;;54.83;30.00;;;9.90;99.90;;;;;;4992756;28;20054;-76
2023/12/19 00:22:51;;;;;;;63.55;30.77;;;9.90;99.90;;;;;;4994010;28;20746;-76
2023/12/19 00:25:16;;;;;;;56.63;28.58;;;9.90;99.90;;;;;;4994213;28;20040;-76
2023/12/19 00:27:42;;;;;;;50.90;25.90;;;9.90;99.90;;;;;;4992777;28;20081;-76
2023/12/19 00:30:08;;;;;;;57.10;30.13;;;9.80;99.90;;;;;;4993650;28;20040;-76
2023/12/19 00:32:33;;;;;;;55.53;24.60;;;9.80;99.90;;;;;;4992488;28;20031;-76
2023/12/19 00:34:59;;;;;;;57.20;29.88;;;9.90;99.90;;;;;;4992302;28;20032;-75
2023/12/19 00:37:25;;;;;;;55.85;29.23;;;9.90;99.90;;;;;;4992654;28;20390;-75
2023/12/19 00:39:50;;;;;;;55.03;28.95;;;9.90;99.90;;;;;;4994055;28;20074;-76
2023/12/19 00:42:16;;;;;;;51.63;27.60;;;9.90;99.90;;;;;;4979617;28;20042;-76
2023/12/19 00:44:41;;;;;;;48.92;29.48;;;9.90;99.90;;;;;;4990576;28;20164;-76
2023/12/19 00:47:07;;;;;;;45.97;27.45;;;9.90;99.90;;;;;;4989490;28;20027;-76
2023/12/19 00:49:32;;;;;;;56.13;29.92;;;9.90;99.90;;;;;;4991747;28;20459;-76
2023/12/19 00:52:00;;;;;;;50.35;28.27;;;10.00;99.90;;;;;;4991874;28;20034;-75
2023/12/19 00:54:25;;;;;;;49.55;27.58;;;10.00;99.90;;;;;;4991501;28;20034;-76
2023/12/19 00:56:51;;;;;;;48.58;24.80;;;9.90;99.90;;;;;;4993433;28;20394;-75
2023/12/19 00:59:16;;;;;;;53.92;27.70;;;9.90;99.90;;;;;;4993448;28;20487;-76
2023/12/19 01:01:42;;;;;;;54.58;28.30;;;10.00;99.90;;;;;;4993236;28;20501;-76
2023/12/19 01:04:09;;;;;;;49.00;27.42;;;9.90;99.90;;;;;;4984612;28;20402;-75
2023/12/19 01:06:35;;;;;;;46.70;26.77;;;9.90;99.90;;;;;;4991248;28;20026;-76
2023/12/19 01:09:01;;;;;;;52.78;27.85;;;9.90;99.90;;;;;;4993111;28;20125;-76
2023/12/19 01:11:27;;;;;;;43.63;24.48;;;9.90;99.90;;;;;;4988953;28;20049;-76
2023/12/19 01:13:52;;;;;;;42.40;24.40;;;9.90;99.90;;;;;;4992751;28;20489;-75
2023/12/19 01:16:18;;;;;;;47.35;26.50;;;9.90;99.90;;;;;;4992574;28;20030;-75
2023/12/19 01:18:43;;;;;;;39.90;24.88;;;9.90;99.90;;;;;;4979273;28;20042;-75
2023/12/19 01:21:09;;;;;;;42.35;25.63;;;9.80;99.90;;;;;;4992792;28;20023;-75
2023/12/19 01:23:34;;;;;;;35.80;21.85;;;9.90;99.90;;;;;;4992348;28;20035;-75
2023/12/19 01:26:00;;;;;;;32.08;19.80;;;9.90;99.90;;;;;;4993433;28;20026;-75
2023/12/19 01:28:25;;;;;;;34.20;20.98;;;9.80;99.90;;;;;;4991639;28;20066;-75
2023/12/19 01:30:51;;;;;;;34.28;21.90;;;9.80;99.90;;;;;;4991901;28;20037;-75
2023/12/19 01:33:16;;;;;;;36.80;22.67;;;9.80;99.90;;;;;;4993072;28;20387;-75
2023/12/19 01:35:42;;;;;;;38.33;23.00;;;9.80;99.90;;;;;;4993039;28;20034;-76
2023/12/19 01:38:09;;;;;;;35.90;23.13;;;9.70;99.90;;;;;;4993056;28;20113;-75
2023/12/19 01:40:34;;;;;;;34.92;23.67;;;9.70;99.90;;;;;;4992812;28;20030;-76
2023/12/19 01:43:01;;;;;;;37.83;23.98;;;9.70;99.90;;;;;;4992887;28;20033;-76
2023/12/19 01:45:28;;;;;;;37.20;23.40;;;9.70;99.90;;;;;;4990138;28;20674;-76
2023/12/19 01:47:54;;;;;;;34.97;19.35;;;9.70;99.90;;;;;;4984723;28;20601;-75
2023/12/19 01:50:20;;;;;;;36.63;23.85;;;9.70;99.90;;;;;;4991463;28;20113;-75
2023/12/19 01:52:57;;;;;;;35.95;24.08;;;9.70;99.90;;;;;;4993331;28;20031;-75
2023/12/19 01:55:24;;;;;;;40.17;25.17;;;9.70;99.90;;;;;;4992732;28;20081;-74
2023/12/19 01:57:50;;;;;;;37.72;24.10;;;9.70;99.90;;;;;;4992269;28;20035;-75
2023/12/19 02:00:16;;;;;;;40.15;24.67;;;9.70;99.90;;;;;;4991266;28;20026;-75
2023/12/19 02:02:43;;;;;;;38.72;24.60;;;9.70;99.90;;;;;;4991591;28;20034;-75
2023/12/19 02:05:09;;;;;;;35.78;22.50;;;9.70;99.90;;;;;;4991487;28;20157;-75
2023/12/19 02:07:34;;;;;;;38.70;24.27;;;9.70;99.90;;;;;;4991786;28;20109;-75
2023/12/19 02:10:00;;;;;;;35.83;22.58;;;9.70;99.90;;;;;;4992525;28;20038;-75
2023/12/19 02:12:26;;;;;;;40.78;24.48;;;9.70;99.90;;;;;;4992342;28;20027;-75
2023/12/19 02:14:54;;;;;;;35.92;23.13;;;9.70;99.90;;;;;;4980190;28;20065;-75
2023/12/19 02:17:21;;;;;;;36.40;22.60;;;9.70;99.90;;;;;;4992539;28;20033;-75
2023/12/19 02:19:48;;;;;;;40.00;24.70;;;9.70;99.90;;;;;;4993612;28;20062;-75
2023/12/19 02:22:14;;;;;;;35.80;22.65;;;9.70;99.90;;;;;;4995337;28;20041;-75
2023/12/19 02:24:40;;;;;;;34.00;20.98;;;9.80;99.90;;;;;;4996263;28;20026;-75
2023/12/19 02:27:06;;;;;;;33.90;22.58;;;9.80;99.90;;;;;;4996252;28;20026;-75
2023/12/19 02:29:32;;;;;;;37.50;22.90;;;9.80;99.90;;;;;;4992863;28;20042;-75
2023/12/19 02:31:58;;;;;;;32.63;22.02;;;9.80;99.90;;;;;;4994086;28;20122;-74
2023/12/19 02:34:24;;;;;;;33.95;21.38;;;9.80;99.90;;;;;;4996500;28;20030;-75
2023/12/19 02:36:57;;;;;;;33.50;22.27;;;9.90;99.90;;;;;;4993401;28;20026;-75
2023/12/19 02:39:23;;;;;;;33.35;22.30;;;9.90;99.90;;;;;;4992643;28;20486;-74
2023/12/19 02:41:49;;;;;;;33.03;21.63;;;9.90;99.90;;;;;;4995709;28;20077;-74
2023/12/19 02:44:14;;;;;;;34.95;22.52;;;9.90;99.90;;;;;;4964412;28;20027;-74
2023/12/19 02:46:40;;;;;;;32.45;20.83;;;9.90;99.90;;;;;;4991851;28;20034;-75
2023/12/19 02:49:06;;;;;;;35.85;22.85;;;10.00;99.90;;;;;;4995839;28;20186;-74
2023/12/19 02:51:31;;;;;;;35.08;23.02;;;10.00;99.90;;;;;;4994008;28;20034;-74
2023/12/19 02:53:58;;;;;;;32.70;22.15;;;10.00;99.90;;;;;;4995505;28;20386;-74
2023/12/19 02:56:24;;;;;;;34.35;24.02;;;10.00;99.90;;;;;;4990973;28;20043;-73
2023/12/19 02:58:50;;;;;;;38.47;22.65;;;10.00;99.90;;;;;;4995768;28;20034;-74
2023/12/19 03:01:15;;;;;;;31.52;20.85;;;10.10;99.90;;;;;;4995857;28;20033;-74
2023/12/19 03:03:43;;;;;;;34.42;23.42;;;10.10;99.90;;;;;;4993840;28;20430;-76
2023/12/19 03:06:08;;;;;;;35.90;23.08;;;10.00;99.90;;;;;;4994306;28;20117;-73
2023/12/19 03:08:35;;;;;;;38.92;23.75;;;10.00;99.90;;;;;;4993823;28;20149;-75
2023/12/19 03:11:01;;;;;;;32.80;23.17;;;10.10;99.90;;;;;;4994252;28;20113;-74
2023/12/19 03:13:26;;;;;;;33.17;22.65;;;10.10;99.90;;;;;;4995282;28;20129;-72
2023/12/19 03:15:52;;;;;;;35.50;24.63;;;10.10;99.90;;;;;;4995469;28;20046;-73
2023/12/19 03:18:23;;;;;;;32.83;20.83;;;10.10;99.90;;;;;;4995282;28;20081;-74
2023/12/19 03:20:49;;;;;;;31.30;20.40;;;10.10;99.90;;;;;;4992780;28;20034;-73
2023/12/19 03:23:15;;;;;;;35.35;22.35;;;10.10;99.90;;;;;;4995343;28;20393;-73
2023/12/19 03:25:41;;;;;;;36.00;23.13;;;10.10;99.90;;;;;;4993639;28;20029;-73
2023/12/19 03:28:06;;;;;;;30.90;22.73;;;10.10;99.90;;;;;;4995079;28;20034;-73
2023/12/19 03:30:32;;;;;;;34.70;21.77;;;10.10;99.90;;;;;;4994060;28;20035;-74
2023/12/19 03:32:57;;;;;;;34.22;22.73;;;10.10;99.90;;;;;;4995098;28;20368;-74
2023/12/19 03:35:23;;;;;;;35.78;21.95;;;10.10;99.90;;;;;;4987699;28;20058;-73
2023/12/19 03:37:50;;;;;;;35.92;23.30;;;10.10;99.90;;;;;;4985254;28;20100;-73
2023/12/19 03:40:16;;;;;;;35.55;23.67;;;10.20;99.90;;;;;;4995031;28;20060;-73
2023/12/19 03:42:42;;;;;;;36.08;22.38;;;10.20;99.90;;;;;;4993474;28;20034;-73
2023/12/19 03:45:08;;;;;;;33.20;21.65;;;10.20;99.90;;;;;;4994009;28;20026;-73
2023/12/19 03:47:34;;;;;;;33.22;21.95;;;10.10;99.90;;;;;;4994776;28;20058;-73
2023/12/19 03:50:00;;;;;;;31.80;20.85;;;10.10;99.90;;;;;;4994824;28;20089;-73
2023/12/19 03:52:25;;;;;;;32.38;21.15;;;10.10;99.90;;;;;;4992205;28;20034;-73
2023/12/19 03:54:51;;;;;;;33.20;20.95;;;10.10;99.90;;;;;;4994573;28;20054;-73
2023/12/19 03:57:16;;;;;;;34.30;21.45;;;10.10;99.90;;;;;;4994777;28;20478;-73
2023/12/19 03:59:43;;;;;;;32.55;19.98;;;10.10;99.90;;;;;;4994893;28;20064;-73
2023/12/19 04:02:09;;;;;;;34.50;22.05;;;10.10;99.90;;;;;;4994430;28;20058;-73
2023/12/19 04:04:35;;;;;;;34.10;22.05;;;10.20;99.90;;;;;;4994450;28;20446;-72
2023/12/19 04:07:00;;;;;;;32.25;19.40;;;10.10;99.90;;;;;;4992617;28;20018;-73
2023/12/19 04:09:26;;;;;;;30.50;19.95;;;10.20;99.90;;;;;;4988747;28;20050;-72
2023/12/19 04:11:51;;;;;;;31.02;21.23;;;10.20;99.90;;;;;;4993816;28;20026;-73
2023/12/19 04:14:18;;;;;;;31.30;19.17;;;10.20;99.90;;;;;;4994089;28;20423;-73
2023/12/19 04:16:43;;;;;;;21.85;13.57;;;10.20;99.90;;;;;;4994023;28;20396;-73
2023/12/19 04:19:09;;;;;;;24.95;15.98;;;10.20;99.90;;;;;;4993882;28;20050;-73
2023/12/19 04:21:36;;;;;;;22.25;14.93;;;10.20;99.90;;;;;;4992592;28;20806;-74
2023/12/19 04:24:03;;;;;;;22.48;13.43;;;10.20;99.90;;;;;;4992853;28;20065;-74
2023/12/19 04:26:29;;;;;;;21.80;13.20;;;10.20;99.90;;;;;;4994073;28;20022;-74
2023/12/19 04:28:54;;;;;;;19.40;12.52;;;10.20;99.90;;;;;;4993812;28;20041;-75
2023/12/19 04:31:20;;;;;;;19.88;12.60;;;10.10;99.90;;;;;;4993842;28;20026;-75
2023/12/19 04:33:45;;;;;;;18.52;12.40;;;10.20;99.90;;;;;;4988489;28;20053;-75
2023/12/19 04:36:11;;;;;;;16.15;10.15;;;10.20;99.90;;;;;;4994305;28;20026;-74
2023/12/19 04:38:38;;;;;;;20.83;12.70;;;10.20;99.90;;;;;;4993767;28;20394;-74
2023/12/19 04:41:03;;;;;;;19.27;12.85;;;10.10;99.90;;;;;;4992205;28;20125;-74
2023/12/19 04:43:29;;;;;;;20.40;13.30;;;10.00;99.90;;;;;;4992255;28;20109;-74
2023/12/19 04:45:54;;;;;;;24.10;14.90;;;10.00;99.90;;;;;;4992176;28;20030;-75
2023/12/19 04:48:20;;;;;;;25.15;15.27;;;10.00;99.90;;;;;;4993719;28;20510;-74
2023/12/19 04:50:46;;;;;;;24.08;15.50;;;10.00;99.90;;;;;;4993455;28;20041;-74
2023/12/19 04:53:11;;;;;;;25.38;16.00;;;10.00;99.90;;;;;;4991598;28;20115;-74
2023/12/19 04:55:37;;;;;;;27.17;17.00;;;10.00;99.90;;;;;;4995004;28;20421;-74
2023/12/19 04:58:02;;;;;;;27.73;17.55;;;10.00;99.90;;;;;;4993770;28;20485;-74
2023/12/19 05:00:28;;;;;;;33.33;17.60;;;10.00;99.90;;;;;;4994924;28;20081;-75
2023/12/19 05:02:54;;;;;;;35.08;19.90;;;10.00;99.90;;;;;;4992727;28;20039;-74
2023/12/19 05:05:22;;;;;;;32.80;20.33;;;10.00;99.90;;;;;;4993375;28;20516;-73
2023/12/19 05:07:48;;;;;;;37.08;20.67;;;10.00;99.90;;;;;;4992449;28;20035;-75
2023/12/19 05:10:14;;;;;;;32.08;17.23;;;10.00;99.90;;;;;;4991034;28;20046;-75
2023/12/19 05:12:40;;;;;;;34.47;19.00;;;10.00;99.90;;;;;;4992936;28;20129;-74
2023/12/19 05:15:06;;;;;;;30.23;19.50;;;10.00;99.90;;;;;;4993039;28;20034;-74
2023/12/19 05:17:32;;;;;;;39.58;20.55;;;10.00;99.90;;;;;;4990109;28;20030;-74
2023/12/19 05:19:58;;;;;;;37.15;20.75;;;10.00;99.90;;;;;;4993165;28;20471;-74
2023/12/19 05:22:24;;;;;;;33.92;20.88;;;10.00;99.90;;;;;;5000591;28;20030;-75
2023/12/19 05:24:50;;;;;;;42.22;22.77;;;10.00;99.90;;;;;;4993262;28;20093;-74
2023/12/19 05:27:15;;;;;;;39.60;22.50;;;10.00;99.90;;;;;;4993293;28;20529;-73
2023/12/19 05:29:41;;;;;;;33.03;20.63;;;10.00;99.90;;;;;;4993355;28;20550;-74
2023/12/19 05:32:07;;;;;;;37.75;20.00;;;10.00;99.90;;;;;;4991661;28;20058;-75
2023/12/19 05:34:32;;;;;;;37.33;21.90;;;9.90;99.90;;;;;;5001685;28;20035;-74
2023/12/19 05:36:58;;;;;;;37.50;20.42;;;9.90;99.90;;;;;;4993267;28;20081;-73
2023/12/19 05:39:24;;;;;;;36.67;22.15;;;9.90;99.90;;;;;;4993053;28;20026;-74
2023/12/19 05:41:51;;;;;;;35.85;20.98;;;9.90;99.90;;;;;;4976652;28;20037;-74
2023/12/19 05:44:17;;;;;;;37.13;20.77;;;9.90;99.90;;;;;;4993011;28;20037;-73
2023/12/19 05:46:43;;;;;;;39.15;23.38;;;9.90;99.90;;;;;;4992974;28;20034;-74
2023/12/19 05:49:09;;;;;;;38.00;21.45;;;9.90;99.90;;;;;;4992855;28;20462;-74
2023/12/19 05:51:39;;;;;;;37.58;22.08;;;9.90;99.90;;;;;;4990724;28;20068;-74
2023/12/19 05:54:05;;;;;;;39.00;23.67;;;9.90;99.90;;;;;;4988217;28;20371;-74
2023/12/19 05:56:30;;;;;;;38.45;22.27;;;9.90;99.90;;;;;;4995135;28;20026;-74
2023/12/19 05:58:56;;;;;;;37.55;22.77;;;9.90;99.90;;;;;;4992816;28;20034;-74
2023/12/19 06:01:21;;;;;;;37.63;22.60;;;9.90;99.90;;;;;;5003128;28;20026;-74
2023/12/19 06:03:47;;;;;;;40.88;23.85;;;9.90;99.90;;;;;;4991713;28;20030;-75
2023/12/19 06:06:18;;;;;;;42.40;22.45;;;9.80;99.90;;;;;;4991777;28;20414;-75
2023/12/19 06:08:44;;;;;;;37.83;23.73;;;9.90;99.90;;;;;;4991463;28;20042;-74
2023/12/19 06:11:10;;;;;;;44.97;25.30;;;9.90;99.90;;;;;;4992808;28;20389;-74
2023/12/19 06:13:36;;;;;;;39.58;23.48;;;9.90;99.90;;;;;;5005685;28;20018;-75
2023/12/19 06:16:03;;;;;;;53.15;25.30;;;9.90;99.90;;;;;;4992514;28;20540;-74
2023/12/19 06:18:28;;;;;;;45.38;25.30;;;9.90;99.90;;;;;;4992653;28;20074;-75
2023/12/19 06:20:54;;;;;;;44.65;27.40;;;9.90;99.90;;;;;;4992808;28;20046;-73
2023/12/19 06:23:20;;;;;;;41.13;24.27;;;10.00;99.90;;;;;;4990520;28;20486;-74
2023/12/19 06:25:45;;;;;;;45.55;26.13;;;10.00;99.90;;;;;;4989883;28;20058;-74
2023/12/19 06:28:11;;;;;;;44.28;25.88;;;10.00;99.90;;;;;;4992092;28;20074;-72
2023/12/19 06:30:37;;;;;;;52.15;27.13;;;10.00;99.90;;;;;;4992710;28;20064;-73
2023/12/19 06:33:03;;;;;;;53.33;27.73;;;10.00;99.90;;;;;;4979945;28;20031;-72
2023/12/19 06:35:31;;;;;;;49.20;28.02;;;10.00;99.90;;;;;;4988754;28;20121;-73
2023/12/19 06:37:57;;;;;;;56.55;29.95;;;10.00;99.90;;;;;;4976716;28;20466;-73
2023/12/19 06:40:23;;;;;;;55.13;30.42;;;10.00;99.90;;;;;;4990711;28;20046;-73
2023/12/19 06:42:49;;;;;;;57.33;29.92;;;10.00;99.90;;;;;;4992695;28;20031;-73
2023/12/19 06:45:15;;;;;;;61.90;31.05;;;10.00;99.90;;;;;;4993050;28;20500;-74
2023/12/19 06:47:40;;;;;;;64.35;30.27;;;10.00;99.90;;;;;;4991038;28;20030;-74
2023/12/19 06:50:06;;;;;;;49.88;28.05;;;10.00;99.90;;;;;;4991501;28;20042;-74
2023/12/19 06:52:32;;;;;;;52.22;28.30;;;10.00;99.90;;;;;;4992570;28;20084;-73
2023/12/19 06:54:58;;;;;;;48.97;26.67;;;10.00;99.90;;;;;;4985866;28;20041;-74
2023/12/19 06:57:24;;;;;;;44.30;24.98;;;10.00;99.90;;;;;;4990989;28;20039;-73
2023/12/19 06:59:50;;;;;;;47.45;27.67;;;10.00;99.90;;;;;;4991178;28;20722;-74
2023/12/19 07:02:16;;;;;;;43.85;23.67;;;10.00;99.90;;;;;;4991545;28;20057;-75
2023/12/19 07:04:41;;;;;;;44.70;25.45;;;10.00;99.90;;;;;;4993422;28;20038;-73
2023/12/19 07:07:08;;;;;;;41.35;25.10;;;10.00;99.90;;;;;;4995949;28;20092;-74
2023/12/19 07:09:34;;;;;;;42.10;24.73;;;10.00;99.90;;;;;;4984196;28;20053;-73
2023/12/19 07:12:00;;;;;;;43.83;25.60;;;10.00;99.90;;;;;;4976339;28;20490;-73
2023/12/19 07:14:27;;;;;;;45.30;24.77;;;10.00;99.90;;;;;;4995291;28;20057;-74
2023/12/19 07:16:52;;;;;;;44.72;26.58;;;10.00;99.90;;;;;;4984741;28;20034;-74
2023/12/19 07:19:18;;;;;;;45.72;26.80;;;10.00;99.90;;;;;;4990546;28;20062;-73
2023/12/19 07:21:44;;;;;;;48.50;28.48;;;10.00;99.90;;;;;;4995373;28;20053;-73
2023/12/19 07:24:10;;;;;;;45.20;25.45;;;10.00;99.90;;;;;;4992690;28;20043;-73
2023/12/19 07:26:35;;;;;;;46.72;27.75;;;9.90;99.90;;;;;;4993400;28;20069;-73
2023/12/19 07:29:02;;;;;;;45.72;26.50;;;9.90;99.90;;;;;;4993497;28;20030;-73
2023/12/19 07:31:31;;;;;;;47.80;27.25;;;9.90;99.90;;;;;;4995370;28;20053;-74
2023/12/19 07:34:00;;;;;;;48.50;27.98;;;10.00;99.90;;;;;;4979547;28;20026;-72
2023/12/19 07:36:27;;;;;;;48.88;27.13;;;9.90;99.90;;;;;;4993392;28;20030;-73
2023/12/19 07:38:53;;;;;;;44.35;25.23;;;10.00;99.90;;;;;;4995289;28;20022;-74
2023/12/19 07:41:19;;;;;;;42.58;25.48;;;9.90;99.90;;;;;;4994954;28;20037;-73
2023/12/19 07:43:45;;;;;;;47.80;27.17;;;9.90;99.90;;;;;;4994570;28;20034;-73
2023/12/19 07:46:14;;;;;;;45.55;25.73;;;9.90;99.90;;;;;;4994764;28;20030;-73
2023/12/19 07:48:40;;;;;;;44.78;24.05;;;10.00;99.90;;;;;;4995074;28;20042;-73
2023/12/19 07:51:06;;;;;;;40.55;23.67;;;10.00;99.90;;;;;;4982627;28;20086;-74
2023/12/19 07:53:32;;;;;;;38.67;22.77;;;10.00;99.90;;;;;;4986436;28;20113;-73
2023/12/19 07:56:00;;;;;;;43.67;22.67;;;10.00;99.90;;;;;;4991546;28;20105;-73
2023/12/19 07:58:26;;;;;;;35.85;20.30;;;10.00;99.90;;;;;;4993894;28;20022;-74
2023/12/19 08:00:52;;;;;;;36.63;22.10;;;10.00;99.90;;;;;;4994672;28;20058;-74
2023/12/19 08:03:18;;;;;;;40.00;22.17;;;10.00;99.90;;;;;;4992220;28;20068;-73
2023/12/19 08:05:50;;;;;;;34.38;21.42;;;10.00;99.90;;;;;;4991092;28;20073;-73
2023/12/19 08:08:19;;;;;;;33.90;22.10;;;10.00;99.90;;;;;;4991102;28;20038;-73
2023/12/19 08:10:45;;;;;;;34.72;20.67;;;9.90;99.90;;;;;;4993746;28;20073;-73
2023/12/19 08:13:14;;;;;;;40.03;22.90;;;9.90;99.90;;;;;;4992872;28;20034;-73
2023/12/19 08:15:42;;;;;;;37.13;22.58;;;9.90;99.90;;;;;;4992115;28;20061;-74
2023/12/19 08:18:09;;;;;;;37.80;22.80;;;9.90;99.90;;;;;;4994665;28;20041;-73
2023/12/19 08:20:35;;;;;;;33.08;20.00;;;9.90;99.90;;;;;;4994897;28;20090;-73
2023/12/19 08:23:01;;;;;;;37.22;21.40;;;9.90;99.90;;;;;;4993638;28;20035;-74
2023/12/19 08:25:28;;;;;;;28.35;18.50;;;9.90;99.90;;;;;;4993296;28;20038;-74
2023/12/19 08:27:53;;;;;;;29.58;18.23;;;9.90;99.90;;;;;;4988732;28;20174;-74
2023/12/19 08:30:19;;;;;;;32.13;18.10;;;9.90;99.90;;;;;;4990721;28;20118;-74
2023/12/19 08:32:46;;;;;;;28.02;17.00;;;9.90;99.90;;;;;;4993905;28;20391;-72
2023/12/19 08:35:12;;;;;;;27.52;15.23;;;9.90;99.90;;;;;;4995312;28;20121;-74
2023/12/19 08:37:37;;;;;;;25.58;16.52;;;9.90;99.90;;;;;;4994337;28;20481;-74
2023/12/19 08:40:04;;;;;;;27.42;15.35;;;9.90;99.90;;;;;;4996203;28;20057;-74
2023/12/19 08:42:30;;;;;;;26.73;15.65;;;9.90;99.90;;;;;;4976479;28;20363;-74
2023/12/19 08:44:55;;;;;;;23.48;14.75;;;9.90;99.90;;;;;;4982225;28;20037;-73
2023/12/19 08:47:22;;;;;;;24.50;15.15;;;9.90;99.90;;;;;;4986800;28;20031;-74
2023/12/19 08:49:48;;;;;;;30.17;15.52;;;9.90;99.90;;;;;;4993825;28;20392;-73
2023/12/19 08:52:14;;;;;;;27.90;15.88;;;9.90;99.90;;;;;;5006266;28;20211;-73
2023/12/19 08:54:40;;;;;;;30.85;17.02;;;9.90;99.90;;;;;;4993159;28;20042;-73
2023/12/19 08:57:05;;;;;;;27.88;16.25;;;9.90;99.90;;;;;;4992279;28;20037;-73
2023/12/19 08:59:31;;;;;;;29.88;17.40;;;10.00;99.90;;;;;;4993746;28;20021;-73
2023/12/19 09:01:57;;;;;;;28.95;15.02;;;10.00;99.90;;;;;;4973241;28;20041;-73
2023/12/19 09:04:23;;;;;;;29.58;16.40;;;9.90;99.90;;;;;;4991247;28;20026;-73
2023/12/19 09:06:48;;;;;;;28.98;15.85;;;10.00;99.90;;;;;;4990739;28;20026;-73
2023/12/19 09:09:14;;;;;;;25.77;15.00;;;10.00;99.90;;;;;;4992353;28;20123;-73
2023/12/19 09:11:40;;;;;;;33.72;17.63;;;10.00;99.90;;;;;;4974371;28;20450;-73
2023/12/19 09:14:06;;;;;;;32.67;17.13;;;10.00;99.90;;;;;;4991396;28;20376;-73
2023/12/19 09:16:32;;;;;;;34.05;18.35;;;10.00;99.90;;;;;;4993608;28;20033;-72
2023/12/19 09:19:01;;;;;;;37.33;19.05;;;10.10;99.90;;;;;;4990516;28;20154;-72
2023/12/19 09:21:27;;;;;;;31.73;17.00;;;10.10;99.90;;;;;;4992880;28;20062;-74
2023/12/19 09:23:54;;;;;;;30.58;17.90;;;10.10;99.90;;;;;;4989739;28;20049;-74
2023/12/19 09:26:20;;;;;;;32.15;17.67;;;10.10;99.90;;;;;;4983226;28;20471;-72
2023/12/19 09:28:45;;;;;;;32.78;16.35;;;10.10;99.90;;;;;;4991342;28;20042;-72
2023/12/19 09:31:11;;;;;;;35.30;17.83;;;10.20;99.90;;;;;;4991767;28;20026;-72
2023/12/19 09:33:38;;;;;;;30.23;16.20;;;10.20;99.90;;;;;;4989943;28;20068;-72
2023/12/19 09:36:06;;;;;;;32.25;17.50;;;10.20;99.90;;;;;;4991152;28;20498;-72
2023/12/19 09:38:31;;;;;;;32.75;17.88;;;10.10;99.90;;;;;;4989519;28;20030;-72
2023/12/19 09:40:57;;;;;;;33.80;17.80;;;10.10;99.90;;;;;;4992579;28;20301;-73
2023/12/19 09:43:23;;;;;;;32.05;16.58;;;10.10;99.90;;;;;;4992312;28;20049;-72
2023/12/19 09:45:50;;;;;;;33.65;16.92;;;10.10;99.90;;;;;;4992280;28;20501;-72
2023/12/19 09:48:16;;;;;;;31.27;17.20;;;10.10;99.90;;;;;;4985938;28;20138;-73
2023/12/19 09:50:43;;;;;;;30.00;17.20;;;10.10;99.90;;;;;;4991730;28;20150;-73
2023/12/19 09:53:10;;;;;;;31.83;16.90;;;10.10;99.90;;;;;;4991462;28;20067;-72
2023/12/19 09:55:42;;;;;;;34.40;19.80;;;10.00;99.90;;;;;;4993043;28;20533;-73
2023/12/19 09:58:09;;;;;;;36.13;19.48;;;10.00;99.90;;;;;;4987864;28;20031;-72
2023/12/19 10:00:36;;;;;;;36.22;20.35;;;10.10;99.90;;;;;;4981663;28;20486;-72
2023/12/19 10:03:03;;;;;;;35.78;20.23;;;10.10;99.90;;;;;;4978635;28;20450;-73
2023/12/19 10:05:29;;;;;;;30.33;19.52;;;10.10;99.90;;;;;;4988530;28;20113;-72
2023/12/19 10:07:58;;;;;;;38.28;20.17;;;10.10;99.90;;;;;;4991620;28;20121;-74
2023/12/19 10:10:51;;;;;;;38.13;20.00;;;10.10;99.90;;;;;;4992702;28;20474;-72
2023/12/19 10:13:37;;;;;;;41.13;19.65;;;10.10;99.90;;;;;;4974816;28;20034;-73
2023/12/19 10:16:06;;;;;;;35.05;19.02;;;10.10;99.90;;;;;;4977915;28;20035;-73
2023/12/19 10:18:33;;;;;;;32.08;17.83;;;10.20;99.90;;;;;;4992496;28;20037;-73
2023/12/19 10:21:15;;;;;;;36.25;19.02;;;10.20;99.90;;;;;;4987177;28;20034;-72
2023/12/19 10:23:41;;;;;;;30.52;16.10;;;10.30;99.90;;;;;;4990688;28;20030;-73
2023/12/19 10:26:07;;;;;;;33.80;16.70;;;10.30;99.90;;;;;;4992391;28;20081;-72
2023/12/19 10:28:34;;;;;;;37.05;17.23;;;10.30;99.90;;;;;;5000194;28;20069;-73
2023/12/19 10:31:16;;;;;;;32.13;15.20;;;10.30;99.90;;;;;;4979564;28;20031;-73
2023/12/19 10:33:48;;;;;;;28.77;15.77;;;10.30;99.90;;;;;;4989041;28;20026;-73
2023/12/19 10:36:26;;;;;;;32.85;16.20;;;10.40;99.90;;;;;;4979249;28;20053;-73
2023/12/19 10:38:53;;;;;;;32.42;16.17;;;10.40;99.90;;;;;;4991558;28;20046;-72
2023/12/19 10:41:25;;;;;;;27.75;13.13;;;10.40;99.90;;;;;;4996521;28;20058;-73
2023/12/19 10:43:52;;;;;;;31.63;13.60;;;10.40;99.90;;;;;;4980760;28;20118;-73
2023/12/19 10:46:21;;;;;;;30.73;14.05;;;10.40;99.90;;;;;;4989845;28;20368;-73
2023/12/19 10:48:47;;;;;;;28.00;13.13;;;10.40;99.90;;;;;;4986713;28;20137;-73
2023/12/19 10:51:18;;;;;;;25.48;11.63;;;10.40;99.90;;;;;;4994217;28;20117;-73
2023/12/19 10:53:58;;;;;;;26.10;11.48;;;10.40;99.90;;;;;;4995353;28;20031;-73
2023/12/19 10:56:24;;;;;;;19.33;9.20;;;10.40;99.90;;;;;;4995870;28;20081;-73
2023/12/19 10:58:58;;;;;;;22.75;10.55;;;10.40;99.90;;;;;;4995614;28;20034;-72
2023/12/19 11:01:26;;;;;;;21.88;9.38;;;10.30;99.90;;;;;;4995825;28;20061;-73
2023/12/19 11:03:59;;;;;;;18.17;7.32;;;10.30;99.90;;;;;;4994523;28;20037;-73
2023/12/19 11:06:29;;;;;;;16.40;7.45;;;10.40;99.90;;;;;;4994184;28;20035;-73
2023/12/19 11:08:58;;;;;;;18.42;8.18;;;10.30;99.90;;;;;;4995944;28;20128;-73
2023/12/19 11:11:35;;;;;;;16.50;7.40;;;10.40;99.90;;;;;;4996027;28;20034;-73
2023/12/19 11:14:02;;;;;;;16.58;8.15;;;10.40;99.90;;;;;;4984668;28;20034;-72
2023/12/19 11:16:54;;;;;;;22.15;7.20;;;10.40;99.90;;;;;;4994339;28;20026;-73
2023/12/19 11:19:27;;;;;;;19.15;7.07;;;10.40;99.90;;;;;;4995404;28;20125;-73
2023/12/19 11:22:11;;;;;;;19.65;7.72;;;10.40;99.90;;;;;;4995362;28;20034;-73
2023/12/19 11:24:42;;;;;;;23.25;8.52;;;10.40;99.90;;;;;;4992727;28;20030;-73
2023/12/19 11:27:25;;;;;;;22.70;9.50;;;10.40;99.90;;;;;;5000690;28;20085;-73
2023/12/19 11:29:53;;;;;;;18.77;8.07;;;10.40;99.90;;;;;;4993164;28;20045;-74
2023/12/19 11:32:28;;;;;;;21.95;8.32;;;10.40;99.90;;;;;;4994580;28;20058;-73
2023/12/19 11:34:54;;;;;;;16.42;8.13;;;10.40;99.90;;;;;;4994058;28;20030;-72
2023/12/19 11:37:21;;;;;;;20.77;8.05;;;10.40;99.90;;;;;;4995194;28;20089;-73
2023/12/19 11:39:46;;;;;;;23.10;8.77;;;10.40;99.90;;;;;;4995223;28;20030;-73
2023/12/19 11:42:38;;;;;;;21.90;8.77;;;10.40;99.90;;;;;;4995460;28;20096;-73
2023/12/19 11:45:18;;;;;;;19.07;8.23;;;10.40;99.90;;;;;;4989253;28;20529;-73
2023/12/19 11:47:45;;;;;;;20.90;8.43;;;10.40;99.90;;;;;;4992436;28;20038;-73
2023/12/19 11:50:10;;;;;;;16.00;7.70;;;10.30;99.90;;;;;;4994488;28;20398;-74
2023/12/19 11:52:36;;;;;;;12.73;5.93;;;10.30;99.90;;;;;;4994521;28;20034;-73
2023/12/19 11:55:04;;;;;;;16.55;6.43;;;10.30;99.90;;;;;;4994869;28;20166;-73
2023/12/19 11:57:30;;;;;;;15.10;5.60;;;10.30;99.90;;;;;;4995078;28;20475;-74
2023/12/19 11:59:56;;;;;;;10.45;5.45;;;10.30;99.90;;;;;;4991968;28;20512;-73
2023/12/19 12:02:33;;;;;;;13.57;5.65;;;10.40;99.90;;;;;;4992883;28;20034;-72
2023/12/19 12:05:19;;;;;;;12.55;5.93;;;10.40;99.90;;;;;;4995106;28;20035;-73
2023/12/19 12:07:48;;;;;;;21.88;8.68;;;10.40;99.90;;;;;;4994755;28;20113;-73
2023/12/19 12:10:22;;;;;;;17.98;7.25;;;10.40;99.90;;;;;;4994904;28;20097;-74
2023/12/19 12:12:49;;;;;;;16.88;6.28;;;10.40;99.90;;;;;;4994838;28;20133;-74
2023/12/19 12:15:16;;;;;;;16.95;6.85;;;10.50;99.90;;;;;;4994309;28;20442;-74
2023/12/19 12:17:44;;;;;;;18.98;7.80;;;10.50;99.90;;;;;;4993488;28;20034;-72
2023/12/19 12:20:10;;;;;;;16.77;6.50;;;10.50;99.90;;;;;;4994097;28;20058;-73
2023/12/19 12:22:35;;;;;;;16.17;5.82;;;10.60;99.90;;;;;;4995056;28;20423;-74
2023/12/19 12:25:02;;;;;;;16.17;6.30;;;10.60;99.90;;;;;;4994862;28;20788;-73
2023/12/19 12:27:27;;;;;;;16.98;6.45;;;10.60;99.90;;;;;;4997702;28;20029;-74
2023/12/19 12:29:54;;;;;;;22.55;8.35;;;10.70;99.90;;;;;;4991359;28;20367;-74